sensor_id;sensor_type;location;lat;lon;timestamp;P1;durP1;ratioP1;P2;durP2;ratioP2
9005;SDS011;62284;50.702;7.140;2022-09-13T00:00:42;3.75;;;3.45;;
9005;SDS011;62284;50.702;7.140;2022-09-13T00:03:10;3.58;;;3.28;;
9005;SDS011;62284;50.702;7.140;2022-09-13T00:05:37;3.60;;;3.40;;
9005;SDS011;62284;50.702;7.140;2022-09-13T00:08:05;3.72;;;3.40;;
9005;SDS011;62284;50.702;7.140;2022-09-13T00:10:32;3.50;;;3.30;;
9005;SDS011;62284;50.702;7.140;2022-09-13T00:13:00;3.47;;;3.17;;
9005;SDS011;62284;50.702;7.140;2022-09-13T00:15:26;3.80;;;3.60;;
9005;SDS011;62284;50.702;7.140;2022-09-13T00:17:54;4.65;;;3.58;;
9005;SDS011;62284;50.702;7.140;2022-09-13T00:20:22;4.00;;;3.70;;
9005;SDS011;62284;50.702;7.140;2022-09-13T00:22:49;4.22;;;3.90;;
9005;SDS011;62284;50.702;7.140;2022-09-13T00:25:16;3.80;;;3.50;;
9005;SDS011;62284;50.702;7.140;2022-09-13T00:27:43;3.88;;;3.58;;
9005;SDS011;62284;50.702;7.140;2022-09-13T00:30:11;3.55;;;3.25;;
9005;SDS011;62284;50.702;7.140;2022-09-13T00:32:38;11.40;;;4.03;;
9005;SDS011;62284;50.702;7.140;2022-09-13T00:35:06;3.20;;;3.00;;
9005;SDS011;62284;50.702;7.140;2022-09-13T00:37:35;3.50;;;3.30;;
9005;SDS011;62284;50.702;7.140;2022-09-13T00:40:03;3.20;;;3.00;;
9005;SDS011;62284;50.702;7.140;2022-09-13T00:42:32;3.53;;;3.22;;
9005;SDS011;62284;50.702;7.140;2022-09-13T00:44:59;3.72;;;3.42;;
9005;SDS011;62284;50.702;7.140;2022-09-13T00:47:30;3.53;;;3.33;;
9005;SDS011;62284;50.702;7.140;2022-09-13T00:50:04;3.42;;;3.22;;
9005;SDS011;62284;50.702;7.140;2022-09-13T00:52:38;3.50;;;3.20;;
9005;SDS011;62284;50.702;7.140;2022-09-13T00:55:10;4.05;;;3.75;;
9005;SDS011;62284;50.702;7.140;2022-09-13T00:57:40;3.78;;;3.53;;
9005;SDS011;62284;50.702;7.140;2022-09-13T01:00:09;3.80;;;3.50;;
9005;SDS011;62284;50.702;7.140;2022-09-13T01:02:39;3.85;;;3.35;;
9005;SDS011;62284;50.702;7.140;2022-09-13T01:05:08;3.22;;;3.00;;
9005;SDS011;62284;50.702;7.140;2022-09-13T01:07:38;3.40;;;3.17;;
9005;SDS011;62284;50.702;7.140;2022-09-13T01:10:06;4.20;;;3.80;;
9005;SDS011;62284;50.702;7.140;2022-09-13T01:12:34;3.67;;;3.35;;
9005;SDS011;62284;50.702;7.140;2022-09-13T01:15:08;3.63;;;3.33;;
9005;SDS011;62284;50.702;7.140;2022-09-13T01:17:36;3.83;;;3.63;;
9005;SDS011;62284;50.702;7.140;2022-09-13T01:20:04;3.60;;;3.30;;
9005;SDS011;62284;50.702;7.140;2022-09-13T01:28:56;3.78;;;3.47;;
9005;SDS011;62284;50.702;7.140;2022-09-13T01:31:43;4.07;;;3.78;;
9005;SDS011;62284;50.702;7.140;2022-09-13T01:34:19;4.10;;;3.70;;
9005;SDS011;62284;50.702;7.140;2022-09-13T01:39:56;4.15;;;3.85;;
9005;SDS011;62284;50.702;7.140;2022-09-13T01:42:33;3.80;;;3.50;;
9005;SDS011;62284;50.702;7.140;2022-09-13T01:45:12;4.70;;;3.95;;
9005;SDS011;62284;50.702;7.140;2022-09-13T01:47:49;3.78;;;3.47;;
9005;SDS011;62284;50.702;7.140;2022-09-13T01:50:23;3.70;;;3.40;;
9005;SDS011;62284;50.702;7.140;2022-09-13T01:52:59;3.83;;;3.53;;
9005;SDS011;62284;50.702;7.140;2022-09-13T01:55:31;4.13;;;3.83;;
9005;SDS011;62284;50.702;7.140;2022-09-13T01:58:08;4.00;;;3.70;;
9005;SDS011;62284;50.702;7.140;2022-09-13T02:00:47;4.25;;;3.90;;
9005;SDS011;62284;50.702;7.140;2022-09-13T02:03:22;4.13;;;3.83;;
9005;SDS011;62284;50.702;7.140;2022-09-13T02:05:55;4.30;;;3.90;;
9005;SDS011;62284;50.702;7.140;2022-09-13T02:08:30;4.30;;;3.90;;
9005;SDS011;62284;50.702;7.140;2022-09-13T02:11:03;4.47;;;4.18;;
9005;SDS011;62284;50.702;7.140;2022-09-13T02:13:35;4.18;;;3.88;;
9005;SDS011;62284;50.702;7.140;2022-09-13T02:16:06;4.10;;;3.80;;
9005;SDS011;62284;50.702;7.140;2022-09-13T02:18:40;4.07;;;3.67;;
9005;SDS011;62284;50.702;7.140;2022-09-13T02:21:11;5.93;;;3.83;;
9005;SDS011;62284;50.702;7.140;2022-09-13T02:23:41;4.50;;;4.10;;
9005;SDS011;62284;50.702;7.140;2022-09-13T02:26:12;3.70;;;3.50;;
9005;SDS011;62284;50.702;7.140;2022-09-13T02:28:41;4.05;;;3.75;;
9005;SDS011;62284;50.702;7.140;2022-09-13T02:31:12;4.43;;;4.13;;
9005;SDS011;62284;50.702;7.140;2022-09-13T02:33:44;4.60;;;4.20;;
9005;SDS011;62284;50.702;7.140;2022-09-13T02:36:16;3.47;;;3.28;;
9005;SDS011;62284;50.702;7.140;2022-09-13T02:38:49;4.55;;;4.25;;
9005;SDS011;62284;50.702;7.140;2022-09-13T02:41:22;3.95;;;3.60;;
9005;SDS011;62284;50.702;7.140;2022-09-13T02:43:54;4.35;;;4.05;;
9005;SDS011;62284;50.702;7.140;2022-09-13T02:46:30;4.22;;;3.70;;
9005;SDS011;62284;50.702;7.140;2022-09-13T02:49:09;5.07;;;3.85;;
9005;SDS011;62284;50.702;7.140;2022-09-13T02:51:42;4.03;;;3.75;;
9005;SDS011;62284;50.702;7.140;2022-09-13T02:54:18;4.10;;;3.80;;
9005;SDS011;62284;50.702;7.140;2022-09-13T02:56:52;4.22;;;3.90;;
9005;SDS011;62284;50.702;7.140;2022-09-13T02:59:24;4.50;;;4.10;;
9005;SDS011;62284;50.702;7.140;2022-09-13T03:01:52;4.43;;;3.97;;
9005;SDS011;62284;50.702;7.140;2022-09-13T03:04:25;3.42;;;3.22;;
9005;SDS011;62284;50.702;7.140;2022-09-13T03:06:52;4.22;;;3.83;;
9005;SDS011;62284;50.702;7.140;2022-09-13T03:09:19;4.00;;;3.80;;
9005;SDS011;62284;50.702;7.140;2022-09-13T03:11:54;4.18;;;3.72;;
9005;SDS011;62284;50.702;7.140;2022-09-13T03:14:33;4.00;;;3.70;;
9005;SDS011;62284;50.702;7.140;2022-09-13T03:17:14;4.53;;;4.03;;
9005;SDS011;62284;50.702;7.140;2022-09-13T03:20:02;3.90;;;3.70;;
9005;SDS011;62284;50.702;7.140;2022-09-13T03:22:56;4.43;;;4.10;;
9005;SDS011;62284;50.702;7.140;2022-09-13T03:25:41;3.90;;;3.65;;
9005;SDS011;62284;50.702;7.140;2022-09-13T03:28:19;4.65;;;3.58;;
9005;SDS011;62284;50.702;7.140;2022-09-13T03:30:56;3.58;;;3.38;;
9005;SDS011;62284;50.702;7.140;2022-09-13T03:33:30;3.72;;;3.53;;
9005;SDS011;62284;50.702;7.140;2022-09-13T03:36:03;4.13;;;3.83;;
9005;SDS011;62284;50.702;7.140;2022-09-13T03:38:38;3.60;;;3.30;;
9005;SDS011;62284;50.702;7.140;2022-09-13T03:41:09;4.13;;;3.83;;
9005;SDS011;62284;50.702;7.140;2022-09-13T03:43:40;3.85;;;3.53;;
9005;SDS011;62284;50.702;7.140;2022-09-13T03:46:12;4.15;;;3.85;;
9005;SDS011;62284;50.702;7.140;2022-09-13T03:48:42;3.78;;;3.58;;
9005;SDS011;62284;50.702;7.140;2022-09-13T03:51:11;4.03;;;3.53;;
9005;SDS011;62284;50.702;7.140;2022-09-13T03:53:41;4.28;;;3.95;;
9005;SDS011;62284;50.702;7.140;2022-09-13T03:56:12;4.00;;;3.70;;
9005;SDS011;62284;50.702;7.140;2022-09-13T03:58:40;4.47;;;4.03;;
9005;SDS011;62284;50.702;7.140;2022-09-13T04:01:08;4.13;;;3.83;;
9005;SDS011;62284;50.702;7.140;2022-09-13T04:03:35;3.95;;;3.63;;
9005;SDS011;62284;50.702;7.140;2022-09-13T04:06:02;3.97;;;3.78;;
9005;SDS011;62284;50.702;7.140;2022-09-13T04:08:31;4.47;;;4.07;;
9005;SDS011;62284;50.702;7.140;2022-09-13T04:10:58;4.10;;;3.80;;
9005;SDS011;62284;50.702;7.140;2022-09-13T04:13:25;3.42;;;3.22;;
9005;SDS011;62284;50.702;7.140;2022-09-13T04:15:52;4.30;;;3.95;;
9005;SDS011;62284;50.702;7.140;2022-09-13T04:18:19;4.22;;;3.83;;
9005;SDS011;62284;50.702;7.140;2022-09-13T04:20:52;3.90;;;3.70;;
9005;SDS011;62284;50.702;7.140;2022-09-13T04:23:19;4.10;;;3.80;;
9005;SDS011;62284;50.702;7.140;2022-09-13T04:25:48;3.95;;;3.45;;
9005;SDS011;62284;50.702;7.140;2022-09-13T04:28:16;4.30;;;3.90;;
9005;SDS011;62284;50.702;7.140;2022-09-13T04:30:43;3.97;;;3.60;;
9005;SDS011;62284;50.702;7.140;2022-09-13T04:33:10;3.50;;;3.20;;
9005;SDS011;62284;50.702;7.140;2022-09-13T04:35:37;3.97;;;3.63;;
9005;SDS011;62284;50.702;7.140;2022-09-13T04:38:05;3.92;;;3.63;;
9005;SDS011;62284;50.702;7.140;2022-09-13T04:40:33;3.20;;;3.00;;
9005;SDS011;62284;50.702;7.140;2022-09-13T04:43:02;3.95;;;3.58;;
9005;SDS011;62284;50.702;7.140;2022-09-13T04:45:29;3.88;;;3.65;;
9005;SDS011;62284;50.702;7.140;2022-09-13T04:47:56;3.60;;;3.30;;
9005;SDS011;62284;50.702;7.140;2022-09-13T04:50:24;3.42;;;3.22;;
9005;SDS011;62284;50.702;7.140;2022-09-13T04:52:53;4.18;;;3.83;;
9005;SDS011;62284;50.702;7.140;2022-09-13T04:55:20;4.15;;;3.85;;
9005;SDS011;62284;50.702;7.140;2022-09-13T04:57:51;3.72;;;3.47;;
9005;SDS011;62284;50.702;7.140;2022-09-13T05:00:21;4.22;;;3.83;;
9005;SDS011;62284;50.702;7.140;2022-09-13T05:02:53;4.05;;;3.85;;
9005;SDS011;62284;50.702;7.140;2022-09-13T05:05:21;3.75;;;3.45;;
9005;SDS011;62284;50.702;7.140;2022-09-13T05:07:49;4.05;;;3.65;;
9005;SDS011;62284;50.702;7.140;2022-09-13T05:10:17;3.83;;;3.60;;
9005;SDS011;62284;50.702;7.140;2022-09-13T05:12:44;4.43;;;4.03;;
9005;SDS011;62284;50.702;7.140;2022-09-13T05:15:11;4.13;;;3.72;;
9005;SDS011;62284;50.702;7.140;2022-09-13T05:17:39;4.55;;;4.15;;
9005;SDS011;62284;50.702;7.140;2022-09-13T05:20:06;4.03;;;3.63;;
9005;SDS011;62284;50.702;7.140;2022-09-13T05:22:34;4.30;;;3.92;;
9005;SDS011;62284;50.702;7.140;2022-09-13T05:25:01;4.00;;;3.70;;
9005;SDS011;62284;50.702;7.140;2022-09-13T05:27:28;4.00;;;3.70;;
9005;SDS011;62284;50.702;7.140;2022-09-13T05:29:54;4.22;;;3.92;;
9005;SDS011;62284;50.702;7.140;2022-09-13T05:32:21;4.15;;;3.75;;
9005;SDS011;62284;50.702;7.140;2022-09-13T05:34:49;4.13;;;3.83;;
9005;SDS011;62284;50.702;7.140;2022-09-13T05:37:17;4.00;;;3.70;;
9005;SDS011;62284;50.702;7.140;2022-09-13T05:39:43;4.80;;;4.40;;
9005;SDS011;62284;50.702;7.140;2022-09-13T05:42:10;4.65;;;4.15;;
9005;SDS011;62284;50.702;7.140;2022-09-13T05:44:37;4.60;;;4.30;;
9005;SDS011;62284;50.702;7.140;2022-09-13T05:47:04;4.60;;;3.83;;
9005;SDS011;62284;50.702;7.140;2022-09-13T05:49:31;4.30;;;3.90;;
9005;SDS011;62284;50.702;7.140;2022-09-13T05:51:59;4.28;;;3.97;;
9005;SDS011;62284;50.702;7.140;2022-09-13T05:54:26;3.95;;;3.65;;
9005;SDS011;62284;50.702;7.140;2022-09-13T05:56:53;3.70;;;3.50;;
9005;SDS011;62284;50.702;7.140;2022-09-13T05:59:21;7.65;;;4.25;;
9005;SDS011;62284;50.702;7.140;2022-09-13T06:01:48;4.40;;;4.05;;
9005;SDS011;62284;50.702;7.140;2022-09-13T06:04:15;4.43;;;4.13;;
9005;SDS011;62284;50.702;7.140;2022-09-13T06:06:42;3.92;;;3.63;;
9005;SDS011;62284;50.702;7.140;2022-09-13T06:09:10;3.75;;;3.47;;
9005;SDS011;62284;50.702;7.140;2022-09-13T06:11:38;4.55;;;4.15;;
9005;SDS011;62284;50.702;7.140;2022-09-13T06:14:05;3.92;;;3.72;;
9005;SDS011;62284;50.702;7.140;2022-09-13T06:16:32;4.75;;;4.25;;
9005;SDS011;62284;50.702;7.140;2022-09-13T06:18:58;4.40;;;4.10;;
9005;SDS011;62284;50.702;7.140;2022-09-13T06:21:26;4.25;;;3.85;;
9005;SDS011;62284;50.702;7.140;2022-09-13T06:23:53;3.70;;;3.45;;
9005;SDS011;62284;50.702;7.140;2022-09-13T06:31:26;3.72;;;3.42;;
9005;SDS011;62284;50.702;7.140;2022-09-13T06:33:54;3.55;;;3.33;;
9005;SDS011;62284;50.702;7.140;2022-09-13T06:36:23;3.80;;;3.60;;
9005;SDS011;62284;50.702;7.140;2022-09-13T06:38:50;3.80;;;3.60;;
9005;SDS011;62284;50.702;7.140;2022-09-13T06:41:17;3.85;;;3.55;;
9005;SDS011;62284;50.702;7.140;2022-09-13T06:43:51;3.35;;;3.05;;
9005;SDS011;62284;50.702;7.140;2022-09-13T06:46:19;3.50;;;3.30;;
9005;SDS011;62284;50.702;7.140;2022-09-13T06:48:47;4.07;;;3.35;;
9005;SDS011;62284;50.702;7.140;2022-09-13T06:51:15;4.18;;;3.85;;
9005;SDS011;62284;50.702;7.140;2022-09-13T06:53:43;4.18;;;3.22;;
9005;SDS011;62284;50.702;7.140;2022-09-13T06:56:13;5.72;;;3.53;;
9005;SDS011;62284;50.702;7.140;2022-09-13T06:58:41;3.97;;;3.60;;
9005;SDS011;62284;50.702;7.140;2022-09-13T07:01:10;3.70;;;3.40;;
9005;SDS011;62284;50.702;7.140;2022-09-13T07:03:39;3.70;;;2.88;;
9005;SDS011;62284;50.702;7.140;2022-09-13T07:06:10;4.35;;;3.95;;
9005;SDS011;62284;50.702;7.140;2022-09-13T07:08:37;3.65;;;3.35;;
9005;SDS011;62284;50.702;7.140;2022-09-13T07:11:05;3.25;;;3.03;;
9005;SDS011;62284;50.702;7.140;2022-09-13T07:13:33;3.53;;;3.22;;
9005;SDS011;62284;50.702;7.140;2022-09-13T07:16:00;3.40;;;3.10;;
9005;SDS011;62284;50.702;7.140;2022-09-13T07:18:28;3.10;;;2.90;;
9005;SDS011;62284;50.702;7.140;2022-09-13T07:20:59;3.63;;;3.33;;
9005;SDS011;62284;50.702;7.140;2022-09-13T07:23:29;2.97;;;2.78;;
9005;SDS011;62284;50.702;7.140;2022-09-13T07:25:56;3.40;;;3.20;;
9005;SDS011;62284;50.702;7.140;2022-09-13T07:28:26;3.03;;;2.83;;
9005;SDS011;62284;50.702;7.140;2022-09-13T07:30:55;3.47;;;3.17;;
9005;SDS011;62284;50.702;7.140;2022-09-13T07:33:24;3.47;;;3.13;;
9005;SDS011;62284;50.702;7.140;2022-09-13T07:35:54;3.42;;;3.10;;
9005;SDS011;62284;50.702;7.140;2022-09-13T07:38:21;3.35;;;2.63;;
9005;SDS011;62284;50.702;7.140;2022-09-13T07:40:53;3.28;;;3.03;;
9005;SDS011;62284;50.702;7.140;2022-09-13T07:43:22;2.90;;;2.70;;
9005;SDS011;62284;50.702;7.140;2022-09-13T07:45:55;3.20;;;3.00;;
9005;SDS011;62284;50.702;7.140;2022-09-13T07:48:23;3.88;;;2.83;;
9005;SDS011;62284;50.702;7.140;2022-09-13T07:51:01;3.13;;;2.92;;
9005;SDS011;62284;50.702;7.140;2022-09-13T07:53:30;3.67;;;2.72;;
9005;SDS011;62284;50.702;7.140;2022-09-13T07:56:02;2.70;;;2.50;;
9005;SDS011;62284;50.702;7.140;2022-09-13T07:58:31;2.78;;;2.60;;
9005;SDS011;62284;50.702;7.140;2022-09-13T08:00:59;2.50;;;2.40;;
9005;SDS011;62284;50.702;7.140;2022-09-13T08:03:31;2.92;;;2.70;;
9005;SDS011;62284;50.702;7.140;2022-09-13T08:05:58;2.90;;;2.80;;
9005;SDS011;62284;50.702;7.140;2022-09-13T08:08:25;2.85;;;2.65;;
9005;SDS011;62284;50.702;7.140;2022-09-13T08:10:52;2.95;;;2.75;;
9005;SDS011;62284;50.702;7.140;2022-09-13T08:13:20;2.95;;;2.75;;
9005;SDS011;62284;50.702;7.140;2022-09-13T08:15:47;3.58;;;2.92;;
9005;SDS011;62284;50.702;7.140;2022-09-13T08:18:15;3.08;;;2.88;;
9005;SDS011;62284;50.702;7.140;2022-09-13T08:20:42;3.60;;;2.70;;
9005;SDS011;62284;50.702;7.140;2022-09-13T08:23:09;3.38;;;3.08;;
9005;SDS011;62284;50.702;7.140;2022-09-13T08:25:37;3.58;;;3.00;;
9005;SDS011;62284;50.702;7.140;2022-09-13T08:28:05;2.83;;;2.60;;
9005;SDS011;62284;50.702;7.140;2022-09-13T08:30:34;3.53;;;3.22;;
9005;SDS011;62284;50.702;7.140;2022-09-13T08:33:02;3.20;;;2.75;;
9005;SDS011;62284;50.702;7.140;2022-09-13T08:35:29;3.72;;;2.92;;
9005;SDS011;62284;50.702;7.140;2022-09-13T08:37:57;3.17;;;2.97;;
9005;SDS011;62284;50.702;7.140;2022-09-13T08:40:27;2.38;;;2.17;;
9005;SDS011;62284;50.702;7.140;2022-09-13T08:42:59;3.22;;;3.03;;
9005;SDS011;62284;50.702;7.140;2022-09-13T08:45:30;3.40;;;3.10;;
9005;SDS011;62284;50.702;7.140;2022-09-13T08:48:00;3.33;;;2.80;;
9005;SDS011;62284;50.702;7.140;2022-09-13T08:50:30;3.95;;;2.80;;
9005;SDS011;62284;50.702;7.140;2022-09-13T08:53:05;2.47;;;2.20;;
9005;SDS011;62284;50.702;7.140;2022-09-13T08:55:48;2.58;;;2.38;;
9005;SDS011;62284;50.702;7.140;2022-09-13T08:58:29;2.70;;;2.50;;
9005;SDS011;62284;50.702;7.140;2022-09-13T09:01:03;7.65;;;4.07;;
9005;SDS011;62284;50.702;7.140;2022-09-13T09:03:37;8.15;;;4.13;;
9005;SDS011;62284;50.702;7.140;2022-09-13T09:06:11;2.78;;;2.50;;
9005;SDS011;62284;50.702;7.140;2022-09-13T09:08:41;3.38;;;2.13;;
9005;SDS011;62284;50.702;7.140;2022-09-13T09:11:13;4.57;;;2.58;;
9005;SDS011;62284;50.702;7.140;2022-09-13T09:13:52;2.90;;;1.85;;
9005;SDS011;62284;50.702;7.140;2022-09-13T09:16:26;2.90;;;2.60;;
9005;SDS011;62284;50.702;7.140;2022-09-13T09:19:05;2.53;;;2.28;;
9005;SDS011;62284;50.702;7.140;2022-09-13T09:21:42;2.95;;;2.20;;
9005;SDS011;62284;50.702;7.140;2022-09-13T09:24:14;2.95;;;2.47;;
9005;SDS011;62284;50.702;7.140;2022-09-13T09:26:45;2.70;;;2.50;;
9005;SDS011;62284;50.702;7.140;2022-09-13T09:29:14;2.83;;;2.58;;
9005;SDS011;62284;50.702;7.140;2022-09-13T09:31:47;4.03;;;2.80;;
9005;SDS011;62284;50.702;7.140;2022-09-13T09:34:26;2.55;;;2.45;;
9005;SDS011;62284;50.702;7.140;2022-09-13T09:37:07;2.30;;;2.10;;
9005;SDS011;62284;50.702;7.140;2022-09-13T09:39:40;2.22;;;2.13;;
9005;SDS011;62284;50.702;7.140;2022-09-13T09:42:09;2.90;;;2.28;;
9005;SDS011;62284;50.702;7.140;2022-09-13T09:44:42;3.33;;;2.13;;
9005;SDS011;62284;50.702;7.140;2022-09-13T09:47:13;4.05;;;2.47;;
9005;SDS011;62284;50.702;7.140;2022-09-13T09:49:44;2.10;;;1.83;;
9005;SDS011;62284;50.702;7.140;2022-09-13T09:52:31;2.33;;;2.15;;
9005;SDS011;62284;50.702;7.140;2022-09-13T09:55:09;2.30;;;2.10;;
9005;SDS011;62284;50.702;7.140;2022-09-13T09:57:53;3.13;;;2.00;;
9005;SDS011;62284;50.702;7.140;2022-09-13T10:00:23;2.17;;;2.00;;
9005;SDS011;62284;50.702;7.140;2022-09-13T10:02:53;2.63;;;2.00;;
9005;SDS011;62284;50.702;7.140;2022-09-13T10:05:25;2.28;;;2.10;;
9005;SDS011;62284;50.702;7.140;2022-09-13T10:07:52;2.53;;;1.95;;
9005;SDS011;62284;50.702;7.140;2022-09-13T10:10:23;2.25;;;2.05;;
9005;SDS011;62284;50.702;7.140;2022-09-13T10:12:52;3.75;;;2.25;;
9005;SDS011;62284;50.702;7.140;2022-09-13T10:15:22;2.38;;;2.20;;
9005;SDS011;62284;50.702;7.140;2022-09-13T10:18:01;1.42;;;1.42;;
9005;SDS011;62284;50.702;7.140;2022-09-13T10:20:32;3.78;;;2.20;;
9005;SDS011;62284;50.702;7.140;2022-09-13T10:23:09;2.00;;;1.90;;
9005;SDS011;62284;50.702;7.140;2022-09-13T10:25:42;2.08;;;1.98;;
9005;SDS011;62284;50.702;7.140;2022-09-13T10:28:12;2.38;;;2.10;;
9005;SDS011;62284;50.702;7.140;2022-09-13T10:30:44;2.20;;;2.00;;
9005;SDS011;62284;50.702;7.140;2022-09-13T10:33:19;2.05;;;1.90;;
9005;SDS011;62284;50.702;7.140;2022-09-13T10:35:53;2.83;;;2.13;;
9005;SDS011;62284;50.702;7.140;2022-09-13T10:38:24;1.88;;;1.75;;
9005;SDS011;62284;50.702;7.140;2022-09-13T10:40:54;1.90;;;1.80;;
9005;SDS011;62284;50.702;7.140;2022-09-13T10:43:21;2.10;;;2.00;;
9005;SDS011;62284;50.702;7.140;2022-09-13T10:45:51;1.73;;;1.63;;
9005;SDS011;62284;50.702;7.140;2022-09-13T10:48:19;4.20;;;1.48;;
9005;SDS011;62284;50.702;7.140;2022-09-13T10:51:01;1.63;;;1.52;;
9005;SDS011;62284;50.702;7.140;2022-09-13T10:53:32;2.20;;;2.00;;
9005;SDS011;62284;50.702;7.140;2022-09-13T10:56:00;1.58;;;1.48;;
9005;SDS011;62284;50.702;7.140;2022-09-13T10:58:28;2.00;;;1.85;;
9005;SDS011;62284;50.702;7.140;2022-09-13T11:04:18;2.42;;;1.70;;
9005;SDS011;62284;50.702;7.140;2022-09-13T11:07:28;1.70;;;1.60;;
9005;SDS011;62284;50.702;7.140;2022-09-13T11:10:10;1.73;;;1.63;;
9005;SDS011;62284;50.702;7.140;2022-09-13T11:12:45;3.15;;;1.50;;
9005;SDS011;62284;50.702;7.140;2022-09-13T11:15:26;2.72;;;1.75;;
9005;SDS011;62284;50.702;7.140;2022-09-13T11:21:14;1.80;;;1.70;;
9005;SDS011;62284;50.702;7.140;2022-09-13T11:23:58;2.35;;;1.40;;
9005;SDS011;62284;50.702;7.140;2022-09-13T11:26:43;1.45;;;1.35;;
9005;SDS011;62284;50.702;7.140;2022-09-13T11:29:20;1.65;;;1.55;;
9005;SDS011;62284;50.702;7.140;2022-09-13T11:32:00;2.50;;;1.67;;
9005;SDS011;62284;50.702;7.140;2022-09-13T11:34:40;1.83;;;1.73;;
9005;SDS011;62284;50.702;7.140;2022-09-13T11:37:31;1.88;;;1.70;;
9005;SDS011;62284;50.702;7.140;2022-09-13T11:40:18;1.40;;;1.30;;
9005;SDS011;62284;50.702;7.140;2022-09-13T11:42:55;2.30;;;1.50;;
9005;SDS011;62284;50.702;7.140;2022-09-13T11:45:33;2.75;;;1.48;;
9005;SDS011;62284;50.702;7.140;2022-09-13T11:48:12;1.85;;;1.75;;
9005;SDS011;62284;50.702;7.140;2022-09-13T11:50:59;2.83;;;2.03;;
9005;SDS011;62284;50.702;7.140;2022-09-13T11:53:40;2.50;;;2.30;;
9005;SDS011;62284;50.702;7.140;2022-09-13T11:56:25;2.28;;;2.00;;
9005;SDS011;62284;50.702;7.140;2022-09-13T11:58:59;1.90;;;1.80;;
9005;SDS011;62284;50.702;7.140;2022-09-13T12:01:36;1.70;;;1.33;;
9005;SDS011;62284;50.702;7.140;2022-09-13T12:04:08;1.77;;;1.67;;
9005;SDS011;62284;50.702;7.140;2022-09-13T12:06:43;2.05;;;1.27;;
9005;SDS011;62284;50.702;7.140;2022-09-13T12:09:14;2.83;;;1.83;;
9005;SDS011;62284;50.702;7.140;2022-09-13T12:11:46;1.80;;;1.63;;
9005;SDS011;62284;50.702;7.140;2022-09-13T12:14:18;1.90;;;1.80;;
9005;SDS011;62284;50.702;7.140;2022-09-13T12:16:49;2.83;;;1.65;;
9005;SDS011;62284;50.702;7.140;2022-09-13T12:19:20;1.95;;;1.40;;
9005;SDS011;62284;50.702;7.140;2022-09-13T12:21:50;1.52;;;1.38;;
9005;SDS011;62284;50.702;7.140;2022-09-13T12:24:22;1.48;;;1.33;;
9005;SDS011;62284;50.702;7.140;2022-09-13T12:26:58;2.35;;;1.50;;
9005;SDS011;62284;50.702;7.140;2022-09-13T12:29:30;2.50;;;1.80;;
9005;SDS011;62284;50.702;7.140;2022-09-13T12:32:02;1.23;;;1.13;;
9005;SDS011;62284;50.702;7.140;2022-09-13T12:34:36;1.70;;;1.33;;
9005;SDS011;62284;50.702;7.140;2022-09-13T12:37:09;2.50;;;1.50;;
9005;SDS011;62284;50.702;7.140;2022-09-13T12:39:52;1.27;;;1.17;;
9005;SDS011;62284;50.702;7.140;2022-09-13T12:42:50;1.83;;;1.70;;
9005;SDS011;62284;50.702;7.140;2022-09-13T12:48:34;1.50;;;1.40;;
9005;SDS011;62284;50.702;7.140;2022-09-13T12:51:18;1.80;;;1.38;;
9005;SDS011;62284;50.702;7.140;2022-09-13T12:53:59;2.58;;;1.48;;
9005;SDS011;62284;50.702;7.140;2022-09-13T12:56:58;1.42;;;1.33;;
9005;SDS011;62284;50.702;7.140;2022-09-13T12:59:38;3.25;;;2.03;;
9005;SDS011;62284;50.702;7.140;2022-09-13T13:02:26;1.55;;;1.23;;
9005;SDS011;62284;50.702;7.140;2022-09-13T13:04:55;1.55;;;1.42;;
9005;SDS011;62284;50.702;7.140;2022-09-13T13:07:26;3.38;;;1.45;;
9005;SDS011;62284;50.702;7.140;2022-09-13T13:09:55;1.67;;;1.58;;
9005;SDS011;62284;50.702;7.140;2022-09-13T13:12:27;1.50;;;1.40;;
9005;SDS011;62284;50.702;7.140;2022-09-13T13:14:58;2.85;;;1.25;;
9005;SDS011;62284;50.702;7.140;2022-09-13T13:17:40;2.47;;;1.40;;
9005;SDS011;62284;50.702;7.140;2022-09-13T13:25:58;1.38;;;1.30;;
9005;SDS011;62284;50.702;7.140;2022-09-13T13:28:53;3.55;;;1.70;;
9005;SDS011;62284;50.702;7.140;2022-09-13T13:31:39;1.55;;;1.30;;
9005;SDS011;62284;50.702;7.140;2022-09-13T13:37:27;1.95;;;1.50;;
9005;SDS011;62284;50.702;7.140;2022-09-13T13:45:58;3.88;;;1.85;;
9005;SDS011;62284;50.702;7.140;2022-09-13T13:48:56;2.35;;;1.27;;
9005;SDS011;62284;50.702;7.140;2022-09-13T13:55:02;1.90;;;1.63;;
9005;SDS011;62284;50.702;7.140;2022-09-13T13:57:50;2.08;;;1.40;;
9005;SDS011;62284;50.702;7.140;2022-09-13T14:00:24;1.75;;;1.33;;
9005;SDS011;62284;50.702;7.140;2022-09-13T14:02:56;2.03;;;1.35;;
9005;SDS011;62284;50.702;7.140;2022-09-13T14:05:38;1.23;;;1.20;;
9005;SDS011;62284;50.702;7.140;2022-09-13T14:08:25;2.15;;;1.20;;
9005;SDS011;62284;50.702;7.140;2022-09-13T14:11:01;2.25;;;1.55;;
9005;SDS011;62284;50.702;7.140;2022-09-13T14:13:39;3.53;;;1.45;;
9005;SDS011;62284;50.702;7.140;2022-09-13T14:16:13;2.10;;;1.08;;
9005;SDS011;62284;50.702;7.140;2022-09-13T14:18:53;3.05;;;1.30;;
9005;SDS011;62284;50.702;7.140;2022-09-13T14:21:41;1.25;;;0.98;;
9005;SDS011;62284;50.702;7.140;2022-09-13T14:24:15;2.40;;;1.50;;
9005;SDS011;62284;50.702;7.140;2022-09-13T14:26:44;3.17;;;1.30;;
9005;SDS011;62284;50.702;7.140;2022-09-13T14:29:14;2.20;;;1.20;;
9005;SDS011;62284;50.702;7.140;2022-09-13T14:31:44;3.15;;;1.40;;
9005;SDS011;62284;50.702;7.140;2022-09-13T14:34:18;1.58;;;1.33;;
9005;SDS011;62284;50.702;7.140;2022-09-13T14:36:51;1.70;;;1.60;;
9005;SDS011;62284;50.702;7.140;2022-09-13T14:39:19;2.85;;;1.30;;
9005;SDS011;62284;50.702;7.140;2022-09-13T14:41:47;2.88;;;1.83;;
9005;SDS011;62284;50.702;7.140;2022-09-13T14:44:23;1.70;;;1.60;;
9005;SDS011;62284;50.702;7.140;2022-09-13T14:46:52;3.47;;;1.85;;
9005;SDS011;62284;50.702;7.140;2022-09-13T14:49:24;2.15;;;1.73;;
9005;SDS011;62284;50.702;7.140;2022-09-13T14:51:55;2.58;;;1.60;;
9005;SDS011;62284;50.702;7.140;2022-09-13T14:54:26;1.90;;;1.77;;
9005;SDS011;62284;50.702;7.140;2022-09-13T14:56:59;1.60;;;1.50;;
9005;SDS011;62284;50.702;7.140;2022-09-13T14:59:30;2.83;;;1.55;;
9005;SDS011;62284;50.702;7.140;2022-09-13T15:02:03;3.10;;;1.27;;
9005;SDS011;62284;50.702;7.140;2022-09-13T15:04:31;1.58;;;1.40;;
9005;SDS011;62284;50.702;7.140;2022-09-13T15:07:07;2.42;;;1.58;;
9005;SDS011;62284;50.702;7.140;2022-09-13T15:09:35;1.80;;;1.48;;
9005;SDS011;62284;50.702;7.140;2022-09-13T15:12:02;1.70;;;1.60;;
9005;SDS011;62284;50.702;7.140;2022-09-13T15:14:30;2.35;;;2.05;;
9005;SDS011;62284;50.702;7.140;2022-09-13T15:16:59;2.03;;;1.60;;
9005;SDS011;62284;50.702;7.140;2022-09-13T15:19:37;2.33;;;1.60;;
9005;SDS011;62284;50.702;7.140;2022-09-13T15:22:17;1.45;;;1.35;;
9005;SDS011;62284;50.702;7.140;2022-09-13T15:24:48;6.28;;;2.15;;
9005;SDS011;62284;50.702;7.140;2022-09-13T15:27:17;2.45;;;1.58;;
9005;SDS011;62284;50.702;7.140;2022-09-13T15:29:47;3.78;;;1.88;;
9005;SDS011;62284;50.702;7.140;2022-09-13T15:32:18;2.90;;;1.95;;
9005;SDS011;62284;50.702;7.140;2022-09-13T15:34:47;3.25;;;1.90;;
9005;SDS011;62284;50.702;7.140;2022-09-13T15:37:16;1.77;;;1.67;;
9005;SDS011;62284;50.702;7.140;2022-09-13T15:40:01;2.45;;;1.67;;
9005;SDS011;62284;50.702;7.140;2022-09-13T15:42:38;4.20;;;2.00;;
9005;SDS011;62284;50.702;7.140;2022-09-13T15:45:05;5.05;;;2.08;;
9005;SDS011;62284;50.702;7.140;2022-09-13T15:47:32;3.30;;;1.80;;
9005;SDS011;62284;50.702;7.140;2022-09-13T15:49:59;2.00;;;1.85;;
9005;SDS011;62284;50.702;7.140;2022-09-13T15:52:27;3.72;;;1.88;;
9005;SDS011;62284;50.702;7.140;2022-09-13T15:54:54;2.00;;;1.70;;
9005;SDS011;62284;50.702;7.140;2022-09-13T15:57:21;3.95;;;1.85;;
9005;SDS011;62284;50.702;7.140;2022-09-13T15:59:50;3.60;;;1.90;;
9005;SDS011;62284;50.702;7.140;2022-09-13T16:02:19;3.33;;;1.90;;
9005;SDS011;62284;50.702;7.140;2022-09-13T16:04:47;2.25;;;1.85;;
9005;SDS011;62284;50.702;7.140;2022-09-13T16:07:14;1.73;;;1.63;;
9005;SDS011;62284;50.702;7.140;2022-09-13T16:09:43;3.63;;;1.70;;
9005;SDS011;62284;50.702;7.140;2022-09-13T16:12:10;1.98;;;1.50;;